Time;durP1;ratioP1;P1;durP2;ratioP2;P2;SDS_P1;SDS_P2;PMS_P1;PMS_P2;Temp;Humidity;BMP_temperature;BMP_pressure;BME280_temperature;BME280_humidity;BME280_pressure;Samples;Min_cycle;Max_cycle;Signal;HPM_P1;HPM_P2
2023/09/11 00:00:42;;;;;;;5.55;4.93;;;23.60;62.50;;;;;;5023529;28;20122;-63
2023/09/11 00:03:08;;;;;;;5.80;5.20;;;23.50;62.40;;;;;;5021112;28;20033;-64
2023/09/11 00:05:33;;;;;;;6.57;5.32;;;23.50;62.50;;;;;;5018869;28;20034;-59
2023/09/11 00:07:59;;;;;;;5.40;4.60;;;23.50;62.50;;;;;;5019057;28;20508;-62
2023/09/11 00:10:24;;;;;;;7.18;5.72;;;23.50;62.50;;;;;;5019346;28;20077;-60
2023/09/11 00:12:50;;;;;;;5.85;4.90;;;23.50;62.50;;;;;;5018612;28;20026;-60
2023/09/11 00:15:16;;;;;;;6.20;5.32;;;23.50;62.50;;;;;;5019286;28;20045;-63
2023/09/11 00:17:41;;;;;;;8.13;5.75;;;23.50;62.60;;;;;;4998580;28;20029;-65
2023/09/11 00:20:10;;;;;;;6.80;5.07;;;23.50;62.60;;;;;;5016901;28;20060;-59
2023/09/11 00:22:36;;;;;;;6.70;5.38;;;23.50;62.50;;;;;;5018613;28;20117;-64
2023/09/11 00:25:02;;;;;;;5.72;5.15;;;23.40;62.50;;;;;;5019947;28;20030;-63
2023/09/11 00:27:27;;;;;;;6.35;5.13;;;23.50;62.60;;;;;;5020454;28;20034;-60
2023/09/11 00:29:53;;;;;;;6.50;5.82;;;23.40;62.50;;;;;;5025836;28;20042;-60
2023/09/11 00:32:18;;;;;;;6.70;5.68;;;23.40;62.50;;;;;;5022035;28;20044;-60
2023/09/11 00:34:44;;;;;;;8.63;5.82;;;23.50;62.60;;;;;;5021824;28;20061;-63
2023/09/11 00:37:10;;;;;;;5.63;5.10;;;23.50;62.60;;;;;;5019155;28;20030;-60
2023/09/11 00:39:35;;;;;;;6.82;5.63;;;23.40;62.50;;;;;;5018754;28;20345;-60
2023/09/11 00:42:01;;;;;;;7.45;5.60;;;23.40;62.50;;;;;;5018589;28;20072;-60
2023/09/11 00:44:26;;;;;;;5.97;5.45;;;23.40;62.60;;;;;;5018098;28;20014;-63
2023/09/11 00:46:52;;;;;;;7.63;5.30;;;23.40;62.70;;;;;;5017015;28;20093;-57
2023/09/11 00:49:20;;;;;;;6.95;5.65;;;23.30;62.50;;;;;;5015468;28;20052;-60
2023/09/11 00:51:45;;;;;;;6.57;5.35;;;23.40;62.70;;;;;;5015883;28;20486;-64
2023/09/11 00:54:12;;;;;;;8.40;5.90;;;23.30;62.60;;;;;;5019684;28;20057;-63
2023/09/11 00:56:38;;;;;;;7.18;5.47;;;23.40;62.60;;;;;;5021258;28;20053;-59
2023/09/11 00:59:03;;;;;;;6.50;5.53;;;23.30;62.60;;;;;;5017084;28;20103;-61
2023/09/11 01:01:29;;;;;;;6.95;5.63;;;23.40;62.60;;;;;;5021290;28;20029;-61
2023/09/11 01:03:55;;;;;;;8.70;6.20;;;23.30;62.60;;;;;;5020509;28;20106;-61
2023/09/11 01:06:21;;;;;;;5.80;5.25;;;23.40;62.60;;;;;;5017381;28;20030;-64
2023/09/11 01:08:47;;;;;;;6.55;5.88;;;23.40;62.50;;;;;;5018607;28;20033;-65
2023/09/11 01:11:12;;;;;;;6.55;5.60;;;23.40;62.50;;;;;;5017439;28;20048;-60
2023/09/11 01:13:38;;;;;;;7.40;5.43;;;23.40;62.60;;;;;;5013459;28;20115;-64
2023/09/11 01:16:22;;;;;;;6.45;5.50;;;23.30;62.50;;;;;;5018109;28;20083;-64
2023/09/11 01:19:25;;;;;;;5.45;4.95;;;23.30;62.70;;;;;;5015662;28;20041;-61
2023/09/11 01:22:22;;;;;;;6.00;5.25;;;23.30;62.70;;;;;;5021493;28;20040;-64
2023/09/11 01:24:53;;;;;;;6.05;5.45;;;23.30;62.60;;;;;;4995010;28;21579;-61
2023/09/11 01:27:49;;;;;;;9.48;6.03;;;23.30;62.60;;;;;;5012482;28;20454;-63
2023/09/11 01:30:15;;;;;;;;;;;23.30;62.60;;;;;;5019706;28;20033;-61
2023/09/11 01:32:42;;;;;;;6.30;5.70;;;23.30;62.60;;;;;;5020472;28;20027;-64
2023/09/11 01:35:08;;;;;;;7.28;6.07;;;23.30;62.60;;;;;;5018852;28;20050;-59
2023/09/11 01:37:33;;;;;;;7.78;5.97;;;23.20;62.50;;;;;;5019546;28;20052;-64
2023/09/11 01:39:59;;;;;;;7.00;6.30;;;23.20;62.60;;;;;;5018176;28;20034;-64
2023/09/11 01:42:43;;;;;;;6.68;5.65;;;23.30;62.60;;;;;;5020448;28;20045;-62
2023/09/11 01:45:13;;;;;;;7.97;6.80;;;23.20;62.60;;;;;;5018594;28;20032;-61
2023/09/11 01:47:38;;;;;;;7.05;6.35;;;23.20;63.20;;;;;;5017154;28;20080;-63
2023/09/11 01:50:05;;;;;;;6.68;5.63;;;23.20;62.70;;;;;;5016072;28;20647;-63
2023/09/11 01:52:33;;;;;;;9.02;5.93;;;23.20;62.50;;;;;;5017721;28;20064;-65
2023/09/11 01:54:59;;;;;;;7.60;5.70;;;23.20;62.60;;;;;;5020176;28;20033;-60
2023/09/11 01:57:27;;;;;;;6.78;6.07;;;23.20;62.70;;;;;;5018187;28;20510;-63
2023/09/11 01:59:53;;;;;;;6.65;5.95;;;23.20;62.70;;;;;;5021029;28;20030;-63
2023/09/11 02:02:18;;;;;;;7.20;6.15;;;23.20;62.70;;;;;;5020185;28;20038;-63
2023/09/11 02:04:45;;;;;;;6.90;6.13;;;23.20;62.70;;;;;;5022380;28;20060;-63
2023/09/11 02:07:10;;;;;;;6.82;6.13;;;23.20;62.60;;;;;;5022099;28;20093;-64
2023/09/11 02:09:36;;;;;;;6.82;6.13;;;23.20;62.70;;;;;;5021769;28;20030;-64
2023/09/11 02:12:01;;;;;;;8.43;6.50;;;23.20;62.70;;;;;;5022388;28;20088;-59
2023/09/11 02:14:28;;;;;;;7.88;6.32;;;23.10;62.70;;;;;;5022032;28;20683;-63
2023/09/11 02:16:53;;;;;;;6.80;6.10;;;23.10;62.70;;;;;;5021157;28;20362;-63
2023/09/11 02:19:19;;;;;;;7.35;5.95;;;23.10;62.70;;;;;;5021049;28;20037;-63
2023/09/11 02:21:44;;;;;;;6.70;6.10;;;23.10;62.70;;;;;;5022722;28;20396;-63
2023/09/11 02:24:10;;;;;;;7.32;6.03;;;23.10;62.70;;;;;;5023123;28;20033;-64
2023/09/11 02:26:35;;;;;;;6.60;6.00;;;23.10;62.70;;;;;;5022013;28;20026;-62
2023/09/11 02:29:01;;;;;;;7.75;5.70;;;23.10;62.70;;;;;;5022412;28;20055;-64
2023/09/11 02:31:26;;;;;;;7.35;5.97;;;23.10;62.60;;;;;;5023644;28;20616;-63
2023/09/11 02:33:52;;;;;;;6.93;6.18;;;23.10;62.70;;;;;;5022308;28;20072;-57
2023/09/11 02:36:18;;;;;;;6.15;5.55;;;23.10;62.60;;;;;;5021732;28;20458;-58
2023/09/11 02:38:43;;;;;;;7.88;6.53;;;23.10;62.70;;;;;;5020895;28;20109;-64
2023/09/11 02:41:08;;;;;;;8.18;6.63;;;23.10;62.60;;;;;;5021866;28;20053;-64
2023/09/11 02:43:34;;;;;;;7.05;6.35;;;23.10;62.60;;;;;;5021631;28;20063;-60
2023/09/11 02:45:59;;;;;;;7.57;6.10;;;23.10;62.70;;;;;;5018771;28;20038;-64
2023/09/11 02:48:25;;;;;;;7.07;6.07;;;23.10;62.70;;;;;;5025338;28;20037;-59
2023/09/11 02:50:50;;;;;;;6.85;6.10;;;23.10;62.70;;;;;;5018661;28;20516;-64
2023/09/11 02:53:16;;;;;;;7.18;6.47;;;23.00;62.60;;;;;;5019538;28;20561;-58
2023/09/11 02:55:43;;;;;;;10.52;6.35;;;23.00;63.20;;;;;;5021106;28;20033;-63
2023/09/11 02:58:09;;;;;;;7.43;6.35;;;23.00;62.60;;;;;;5021254;28;20029;-65
2023/09/11 03:00:35;;;;;;;11.02;6.32;;;23.00;62.60;;;;;;5019654;28;20037;-64
2023/09/11 03:03:05;;;;;;;6.88;6.18;;;23.00;62.50;;;;;;5021489;28;20029;-64
2023/09/11 03:05:33;;;;;;;7.43;6.65;;;23.00;62.70;;;;;;5018764;28;20053;-63
2023/09/11 03:08:00;;;;;;;7.63;6.65;;;23.00;62.50;;;;;;5020788;28;20036;-64
2023/09/11 03:10:27;;;;;;;7.32;6.63;;;23.00;62.60;;;;;;5023349;28;20473;-62
2023/09/11 03:12:54;;;;;;;9.05;6.53;;;23.00;62.60;;;;;;5019534;28;20025;-64
2023/09/11 03:15:20;;;;;;;6.32;5.72;;;23.00;62.60;;;;;;5004229;28;20408;-64
2023/09/11 03:17:49;;;;;;;6.53;5.90;;;23.00;62.60;;;;;;5018223;28;20030;-64
2023/09/11 03:20:15;;;;;;;7.55;6.75;;;23.00;62.60;;;;;;5019938;28;20032;-59
2023/09/11 03:22:40;;;;;;;7.43;6.72;;;23.00;62.60;;;;;;5017955;28;20030;-64
2023/09/11 03:25:06;;;;;;;7.63;6.70;;;22.90;62.50;;;;;;5019502;28;20566;-64
2023/09/11 03:27:31;;;;;;;8.05;6.53;;;22.90;62.50;;;;;;5017573;28;20026;-63
2023/09/11 03:29:57;;;;;;;6.88;6.15;;;22.90;62.50;;;;;;5020095;28;20044;-59
2023/09/11 03:32:23;;;;;;;6.97;6.28;;;22.90;61.80;;;;;;5018473;28;20421;-64
2023/09/11 03:34:53;;;;;;;7.85;7.05;;;22.90;61.50;;;;;;5017632;28;20029;-63
2023/09/11 03:37:19;;;;;;;8.77;6.43;;;22.90;61.30;;;;;;4992690;28;20036;-63
2023/09/11 03:39:45;;;;;;;8.55;7.13;;;22.90;60.80;;;;;;5016687;28;20034;-60
2023/09/11 03:42:10;;;;;;;8.02;6.93;;;22.80;61.30;;;;;;5023612;28;20087;-64
2023/09/11 03:44:36;;;;;;;8.05;6.50;;;22.80;61.60;;;;;;5021181;28;20026;-64
2023/09/11 03:47:01;;;;;;;10.05;7.30;;;22.80;61.00;;;;;;5022378;28;20055;-63
2023/09/11 03:49:27;;;;;;;6.82;6.15;;;22.80;61.80;;;;;;5020729;28;20534;-65
2023/09/11 03:51:52;;;;;;;7.00;6.40;;;22.80;61.70;;;;;;5020249;28;20049;-63
2023/09/11 03:54:18;;;;;;;7.90;6.85;;;22.80;61.70;;;;;;5022520;28;20048;-62
2023/09/11 03:56:44;;;;;;;7.90;7.00;;;22.80;61.60;;;;;;5020039;28;20040;-63
2023/09/11 03:59:09;;;;;;;8.38;6.63;;;22.80;62.40;;;;;;5019586;28;20026;-65
2023/09/11 04:01:35;;;;;;;7.18;6.43;;;22.80;61.90;;;;;;5018494;28;20095;-57
2023/09/11 04:04:00;;;;;;;7.50;6.72;;;22.80;62.00;;;;;;5016727;28;20025;-62
2023/09/11 04:06:26;;;;;;;8.07;7.10;;;22.80;62.10;;;;;;5018091;28;20048;-62
2023/09/11 04:08:51;;;;;;;7.07;6.38;;;22.80;61.90;;;;;;5021227;28;20038;-64
2023/09/11 04:11:22;;;;;;;8.43;6.80;;;22.70;61.80;;;;;;5020371;28;20125;-59
2023/09/11 04:13:48;;;;;;;7.18;6.30;;;22.70;61.90;;;;;;5021278;28;20033;-64
2023/09/11 04:16:15;;;;;;;8.15;7.00;;;22.70;61.90;;;;;;5022474;28;20464;-64
2023/09/11 04:18:42;;;;;;;8.95;7.55;;;22.70;62.00;;;;;;5019005;28;20776;-61
2023/09/11 04:21:08;;;;;;;8.90;8.00;;;22.70;61.80;;;;;;5018130;28;20586;-65
2023/09/11 04:23:34;;;;;;;8.60;6.55;;;22.70;61.80;;;;;;5019609;28;20038;-62
2023/09/11 04:26:00;;;;;;;8.88;7.15;;;22.70;61.80;;;;;;5020322;28;20033;-64
2023/09/11 04:28:25;;;;;;;7.85;7.05;;;22.70;61.80;;;;;;5016643;28;20038;-63
2023/09/11 04:30:51;;;;;;;7.40;6.70;;;22.70;61.80;;;;;;5016067;28;20091;-64
2023/09/11 04:33:18;;;;;;;7.78;6.97;;;22.70;61.80;;;;;;5017587;28;20109;-64
2023/09/11 04:35:43;;;;;;;8.20;7.25;;;22.70;61.80;;;;;;5000730;28;20037;-64
2023/09/11 04:38:09;;;;;;;8.98;7.30;;;22.70;61.50;;;;;;5018150;28;20038;-61
2023/09/11 04:40:34;;;;;;;7.93;7.18;;;22.70;61.70;;;;;;5003416;28;20034;-63
2023/09/11 04:43:00;;;;;;;8.32;7.53;;;22.70;61.50;;;;;;5020207;28;20507;-64
2023/09/11 04:45:25;;;;;;;9.48;7.43;;;22.70;62.30;;;;;;5021047;28;20121;-62
2023/09/11 04:47:51;;;;;;;8.00;7.20;;;22.70;61.60;;;;;;5019519;28;20566;-63
2023/09/11 04:50:16;;;;;;;8.32;7.35;;;22.60;61.30;;;;;;5016267;28;20041;-59
2023/09/11 04:52:42;;;;;;;10.02;7.40;;;22.60;61.60;;;;;;5020191;28;20045;-61
2023/09/11 04:55:08;;;;;;;8.18;7.38;;;22.70;61.30;;;;;;5021353;28;20546;-58
2023/09/11 04:57:36;;;;;;;8.10;7.30;;;22.70;61.40;;;;;;5017591;28;20492;-61
2023/09/11 05:00:14;;;;;;;8.35;7.40;;;22.60;61.50;;;;;;5015892;28;20026;-65
2023/09/11 05:02:40;;;;;;;9.50;7.32;;;22.60;61.60;;;;;;5015913;28;20056;-61
2023/09/11 05:05:06;;;;;;;10.10;8.13;;;22.60;61.60;;;;;;5016649;28;20025;-61
2023/09/11 05:07:31;;;;;;;8.43;7.47;;;22.60;61.90;;;;;;5011916;28;20030;-65
2023/09/11 05:09:59;;;;;;;8.15;7.32;;;22.60;62.50;;;;;;5019803;28;20097;-64
2023/09/11 05:12:24;;;;;;;7.65;6.93;;;22.70;61.80;;;;;;5022035;28;20492;-64
2023/09/11 05:14:50;;;;;;;8.02;7.22;;;22.70;61.60;;;;;;5020210;28;20133;-63
2023/09/11 05:17:15;;;;;;;7.28;6.53;;;22.70;61.30;;;;;;5016644;28;20117;-62
2023/09/11 05:19:41;;;;;;;7.15;6.45;;;22.70;61.40;;;;;;5018810;28;20025;-60
2023/09/11 05:22:07;;;;;;;8.38;7.30;;;22.70;61.30;;;;;;5018560;28;20033;-60
2023/09/11 05:24:33;;;;;;;7.57;6.80;;;22.70;61.30;;;;;;5018158;28;20507;-61
2023/09/11 05:26:58;;;;;;;9.23;6.43;;;22.70;61.40;;;;;;5017220;28;20030;-60
2023/09/11 05:29:24;;;;;;;9.05;7.03;;;22.70;61.40;;;;;;5015961;28;20064;-62
2023/09/11 05:31:49;;;;;;;8.43;7.00;;;22.80;61.40;;;;;;5013822;28;20050;-63
2023/09/11 05:34:15;;;;;;;8.80;6.40;;;22.80;61.50;;;;;;5019110;28;20041;-61
2023/09/11 05:36:41;;;;;;;9.63;6.78;;;22.80;61.50;;;;;;5011715;28;20386;-64
2023/09/11 05:39:07;;;;;;;7.68;6.90;;;22.80;61.50;;;;;;5021933;28;20048;-62
2023/09/11 05:41:34;;;;;;;8.15;6.03;;;22.80;61.60;;;;;;5025765;28;20034;-63
2023/09/11 05:44:00;;;;;;;9.30;6.72;;;22.80;61.60;;;;;;5023069;28;20036;-61
2023/09/11 05:46:25;;;;;;;7.00;6.30;;;22.80;61.60;;;;;;5022501;28;20257;-63
2023/09/11 05:48:51;;;;;;;8.63;6.28;;;22.80;61.70;;;;;;5023690;28;20029;-64
2023/09/11 05:51:16;;;;;;;9.27;7.47;;;22.80;62.00;;;;;;5005240;28;20046;-66
2023/09/11 05:53:42;;;;;;;7.82;6.97;;;22.70;62.10;;;;;;5022481;28;20049;-63
2023/09/11 05:56:07;;;;;;;9.55;6.82;;;22.70;62.20;;;;;;5020417;28;20575;-61
2023/09/11 05:58:33;;;;;;;8.43;7.05;;;22.70;62.30;;;;;;5019522;28;20029;-65
2023/09/11 06:00:58;;;;;;;9.38;7.55;;;22.70;62.30;;;;;;5008450;28;20056;-64
2023/09/11 06:03:24;;;;;;;10.50;7.40;;;22.70;62.30;;;;;;5022410;28;20048;-66
2023/09/11 06:05:50;;;;;;;8.57;7.10;;;22.70;62.40;;;;;;5013587;28;20038;-64
2023/09/11 06:08:15;;;;;;;8.82;7.22;;;22.70;62.30;;;;;;5019097;28;20511;-59
2023/09/11 06:10:41;;;;;;;9.45;7.72;;;22.70;62.30;;;;;;5017212;28;20045;-63
2023/09/11 06:13:07;;;;;;;10.80;7.40;;;22.70;62.40;;;;;;5021895;28;20033;-58
2023/09/11 06:15:32;;;;;;;9.30;7.90;;;22.70;62.40;;;;;;5020804;28;20588;-60
2023/09/11 06:17:58;;;;;;;9.55;8.23;;;22.70;62.50;;;;;;5022446;28;20033;-63
2023/09/11 06:20:23;;;;;;;9.27;7.68;;;22.70;62.50;;;;;;5021750;28;20056;-63
2023/09/11 06:22:49;;;;;;;10.60;7.28;;;22.70;62.50;;;;;;5024662;28;20503;-63
2023/09/11 06:25:15;;;;;;;9.40;7.35;;;22.70;62.50;;;;;;5020561;28;20057;-63
2023/09/11 06:27:40;;;;;;;8.95;7.68;;;22.70;62.50;;;;;;5018475;28;20030;-62
2023/09/11 06:30:06;;;;;;;8.75;7.63;;;22.70;62.50;;;;;;5020962;28;20114;-58
2023/09/11 06:32:35;;;;;;;11.05;7.82;;;22.60;62.40;;;;;;5021012;28;20522;-62
2023/09/11 06:35:04;;;;;;;9.05;7.72;;;22.70;62.50;;;;;;5021478;28;20029;-63
2023/09/11 06:37:30;;;;;;;11.57;8.38;;;22.70;62.80;;;;;;5020483;28;20036;-63
2023/09/11 06:39:56;;;;;;;9.30;7.88;;;22.70;62.80;;;;;;5007399;28;20980;-62
2023/09/11 06:42:23;;;;;;;9.65;7.82;;;22.60;63.80;;;;;;5025809;28;20510;-63
2023/09/11 06:44:50;;;;;;;12.77;7.80;;;22.60;63.30;;;;;;5022873;28;20068;-60
2023/09/11 06:47:16;;;;;;;9.32;7.75;;;22.60;63.20;;;;;;5023243;28;20045;-57
2023/09/11 06:49:41;;;;;;;8.63;6.88;;;22.60;64.40;;;;;;5021740;28;20392;-64
2023/09/11 06:52:07;;;;;;;10.32;8.60;;;22.60;63.30;;;;;;5021475;28;20112;-57
2023/09/11 06:54:32;;;;;;;10.38;8.05;;;22.60;63.50;;;;;;5019683;28;20045;-62
2023/09/11 06:56:58;;;;;;;8.25;7.43;;;22.60;63.30;;;;;;5016921;28;20329;-61
2023/09/11 06:59:23;;;;;;;8.45;7.55;;;22.70;63.40;;;;;;5019544;28;20495;-62
2023/09/11 07:01:50;;;;;;;9.68;7.90;;;22.70;63.30;;;;;;5018398;28;20037;-58
2023/09/11 07:04:16;;;;;;;10.02;8.32;;;22.70;63.30;;;;;;5017871;28;20068;-64
2023/09/11 07:06:42;;;;;;;8.85;7.63;;;22.70;63.20;;;;;;5005529;28;20030;-63
2023/09/11 07:09:08;;;;;;;9.75;8.15;;;22.70;63.30;;;;;;5016130;28;20033;-59
2023/09/11 07:11:34;;;;;;;11.07;7.90;;;22.70;63.30;;;;;;5016855;28;20037;-56
2023/09/11 07:14:00;;;;;;;11.82;8.38;;;22.70;63.50;;;;;;5018686;28;20033;-63
2023/09/11 07:16:25;;;;;;;10.30;8.60;;;22.70;63.30;;;;;;5019163;28;20044;-60
2023/09/11 07:18:51;;;;;;;8.15;7.35;;;22.70;63.50;;;;;;5019046;28;20199;-64
2023/09/11 07:21:17;;;;;;;9.52;8.23;;;22.70;63.60;;;;;;5017846;28;20099;-63
2023/09/11 07:23:42;;;;;;;9.52;8.52;;;22.80;63.90;;;;;;5016903;28;20041;-59
2023/09/11 07:26:08;;;;;;;10.13;7.95;;;22.80;64.00;;;;;;5016865;28;20095;-57
2023/09/11 07:28:52;;;;;;;8.30;7.50;;;22.80;64.40;;;;;;5018255;28;20034;-64
2023/09/11 07:31:17;;;;;;;8.75;7.60;;;22.80;64.30;;;;;;5014782;28;20038;-62
2023/09/11 07:33:43;;;;;;;12.73;8.63;;;22.80;64.10;;;;;;5014611;28;20401;-65
2023/09/11 07:36:08;;;;;;;9.50;7.82;;;22.80;63.90;;;;;;5023785;28;20029;-64
2023/09/11 07:38:34;;;;;;;11.63;8.20;;;22.90;63.80;;;;;;5022816;28;20051;-61
2023/09/11 07:41:00;;;;;;;9.05;7.35;;;22.90;63.50;;;;;;5018629;28;20428;-56
2023/09/11 07:43:25;;;;;;;8.30;7.38;;;22.90;63.40;;;;;;5020064;28;20488;-60
2023/09/11 07:45:51;;;;;;;8.18;7.38;;;22.90;63.30;;;;;;5020737;28;20103;-64
2023/09/11 07:48:17;;;;;;;8.98;7.97;;;22.90;63.30;;;;;;5020003;28;20250;-63
2023/09/11 07:50:42;;;;;;;8.85;7.78;;;22.90;63.30;;;;;;5018472;28;20035;-56
2023/09/11 07:53:08;;;;;;;9.02;8.07;;;22.90;63.20;;;;;;5016712;28;20123;-64
2023/09/11 07:55:37;;;;;;;10.60;8.35;;;22.90;63.20;;;;;;5017509;28;20133;-59
2023/09/11 07:58:02;;;;;;;11.45;8.57;;;22.90;63.10;;;;;;5017722;28;20487;-62
2023/09/11 08:00:30;;;;;;;10.40;8.23;;;22.90;63.10;;;;;;5017960;28;20037;-63
2023/09/11 08:02:56;;;;;;;10.10;7.78;;;22.90;63.10;;;;;;5019334;28;20040;-63
2023/09/11 08:05:22;;;;;;;10.85;8.45;;;22.90;63.20;;;;;;5025604;28;20037;-64
2023/09/11 08:07:50;;;;;;;9.30;8.10;;;22.90;63.20;;;;;;5028604;28;20567;-64
2023/09/11 08:10:16;;;;;;;9.27;7.72;;;22.90;63.10;;;;;;5021034;28;20156;-63
2023/09/11 08:12:41;;;;;;;9.88;8.45;;;22.90;63.10;;;;;;5019259;28;20125;-64
2023/09/11 08:15:07;;;;;;;9.02;7.85;;;22.90;63.00;;;;;;5019256;28;20036;-63
2023/09/11 08:17:33;;;;;;;10.43;8.38;;;22.90;63.20;;;;;;5019487;28;20564;-63
2023/09/11 08:19:59;;;;;;;10.57;8.05;;;22.90;63.10;;;;;;5017806;28;20022;-64
2023/09/11 08:22:24;;;;;;;9.70;8.63;;;22.90;63.20;;;;;;5018773;28;20049;-64
2023/09/11 08:24:50;;;;;;;12.07;8.93;;;22.90;63.20;;;;;;5020442;28;20460;-65
2023/09/11 08:27:15;;;;;;;9.35;8.27;;;22.90;63.60;;;;;;5017186;28;20041;-62
2023/09/11 08:29:41;;;;;;;9.55;7.95;;;23.00;63.80;;;;;;5013121;28;20032;-64
2023/09/11 08:32:06;;;;;;;12.07;8.02;;;23.00;63.70;;;;;;5020931;28;20034;-63
2023/09/11 08:34:32;;;;;;;10.88;8.60;;;23.00;64.10;;;;;;5019323;28;20022;-64
2023/09/11 08:36:57;;;;;;;9.90;8.75;;;23.00;63.90;;;;;;5018718;28;20026;-61
2023/09/11 08:39:23;;;;;;;10.05;8.63;;;23.00;63.90;;;;;;5017033;28;20488;-64
2023/09/11 08:41:50;;;;;;;9.80;7.95;;;23.00;63.80;;;;;;5018151;28;20025;-63
2023/09/11 08:44:16;;;;;;;9.63;8.20;;;23.00;63.70;;;;;;5014557;28;20044;-64
2023/09/11 08:46:45;;;;;;;10.05;8.63;;;23.00;63.60;;;;;;5017286;28;20018;-64
2023/09/11 08:49:16;;;;;;;10.30;8.23;;;23.00;63.70;;;;;;5018780;28;20581;-64
2023/09/11 08:52:28;;;;;;;11.48;9.75;;;23.00;63.90;;;;;;5003397;28;20069;-65
2023/09/11 08:54:59;;;;;;;10.43;9.30;;;23.00;64.00;;;;;;5014715;28;20044;-64
2023/09/11 08:57:26;;;;;;;9.48;8.52;;;23.10;64.00;;;;;;5017035;28;20029;-64
2023/09/11 08:59:55;;;;;;;10.25;9.13;;;23.00;64.10;;;;;;5021323;28;20120;-64
2023/09/11 09:02:23;;;;;;;9.38;8.40;;;23.00;64.30;;;;;;5020397;28;20494;-65
2023/09/11 09:04:49;;;;;;;10.05;7.88;;;23.00;64.50;;;;;;5018788;28;20021;-63
2023/09/11 09:07:15;;;;;;;9.02;8.10;;;23.10;64.50;;;;;;5020578;28;20046;-63
2023/09/11 09:09:42;;;;;;;11.98;8.65;;;23.10;64.40;;;;;;5016298;28;20130;-63
2023/09/11 09:12:08;;;;;;;11.57;9.05;;;23.10;64.30;;;;;;5019584;28;20098;-63
2023/09/11 09:14:38;;;;;;;11.73;8.85;;;23.10;64.10;;;;;;5018189;28;20033;-63
2023/09/11 09:17:03;;;;;;;9.73;8.77;;;23.10;64.20;;;;;;5015108;28;20614;-64
2023/09/11 09:19:29;;;;;;;12.25;8.63;;;23.10;64.20;;;;;;5018528;28;20535;-64
2023/09/11 09:22:06;;;;;;;9.52;8.57;;;23.10;64.00;;;;;;5014766;28;20488;-62
2023/09/11 09:24:32;;;;;;;12.98;9.07;;;23.10;64.10;;;;;;5014593;28;20065;-63
2023/09/11 09:27:03;;;;;;;10.93;8.90;;;23.10;64.30;;;;;;5017750;28;20390;-61
2023/09/11 09:29:39;;;;;;;10.07;8.98;;;23.10;64.50;;;;;;5018857;28;20056;-64
2023/09/11 09:32:06;;;;;;;10.15;8.63;;;23.10;64.50;;;;;;5020380;28;20037;-61
2023/09/11 09:34:33;;;;;;;9.98;8.45;;;23.20;65.20;;;;;;5016205;28;20029;-64
2023/09/11 09:36:59;;;;;;;9.20;7.95;;;23.20;64.80;;;;;;5019136;28;20417;-64
2023/09/11 09:39:28;;;;;;;9.85;8.02;;;23.20;64.30;;;;;;5019931;28;20026;-63
2023/09/11 09:41:56;;;;;;;9.80;8.80;;;23.20;63.90;;;;;;5018056;28;20115;-64
2023/09/11 09:44:31;;;;;;;10.77;8.77;;;23.20;63.70;;;;;;5018556;28;20037;-63
2023/09/11 09:47:04;;;;;;;;;;;23.20;63.50;;;;;;5006828;28;20034;-65
2023/09/11 09:49:32;;;;;;;8.80;7.90;;;23.30;63.40;;;;;;5012519;28;20059;-64
2023/09/11 09:51:58;;;;;;;9.18;8.30;;;23.30;63.50;;;;;;5016776;28;20029;-61
2023/09/11 09:54:41;;;;;;;9.88;7.85;;;23.30;63.60;;;;;;5016023;28;20044;-63
2023/09/11 09:57:09;;;;;;;10.90;8.00;;;23.30;63.50;;;;;;5014107;28;20511;-63
2023/09/11 09:59:35;;;;;;;9.52;8.55;;;23.30;63.50;;;;;;5017772;28;20395;-63
2023/09/11 10:02:01;;;;;;;10.38;9.23;;;23.30;63.90;;;;;;5020523;28;20293;-61
2023/09/11 10:04:26;;;;;;;10.30;8.27;;;23.30;63.80;;;;;;5020814;28;20175;-64
2023/09/11 10:06:56;;;;;;;9.05;7.68;;;23.30;63.60;;;;;;5018337;28;20125;-64
2023/09/11 10:09:22;;;;;;;9.25;8.25;;;23.30;63.60;;;;;;5011406;28;20036;-63
2023/09/11 10:11:50;;;;;;;10.95;9.07;;;23.30;63.60;;;;;;5017923;28;20030;-62
2023/09/11 10:14:18;;;;;;;14.27;8.90;;;23.30;63.60;;;;;;5007752;28;20129;-63
2023/09/11 10:16:45;;;;;;;10.77;9.27;;;23.40;63.80;;;;;;5016568;28;20033;-63
2023/09/11 10:19:12;;;;;;;11.93;9.40;;;23.40;63.90;;;;;;5017228;28;20053;-63
2023/09/11 10:21:37;;;;;;;10.48;9.40;;;23.40;64.00;;;;;;5015542;28;20057;-62
2023/09/11 10:24:04;;;;;;;11.23;9.55;;;23.40;64.20;;;;;;5014685;28;20535;-62
2023/09/11 10:26:34;;;;;;;9.90;8.95;;;23.40;64.60;;;;;;5005273;28;20045;-63
2023/09/11 10:29:05;;;;;;;11.68;9.25;;;23.40;64.20;;;;;;5023187;28;20091;-60
2023/09/11 10:31:51;;;;;;;12.32;9.50;;;23.40;64.10;;;;;;5024669;28;20408;-63
2023/09/11 10:34:18;;;;;;;11.70;8.95;;;23.40;63.80;;;;;;5021456;28;20439;-64
2023/09/11 10:36:48;;;;;;;11.55;8.65;;;23.40;63.70;;;;;;5019159;28;20029;-60
2023/09/11 10:39:16;;;;;;;9.73;8.43;;;23.50;63.90;;;;;;5018884;28;20187;-62
2023/09/11 10:41:42;;;;;;;9.63;8.63;;;23.40;64.80;;;;;;5020361;28;20079;-63
2023/09/11 10:44:08;;;;;;;11.68;9.40;;;23.50;64.80;;;;;;5021395;28;20034;-62
2023/09/11 10:46:38;;;;;;;12.95;9.13;;;23.50;64.70;;;;;;5014972;28;20113;-61
2023/09/11 10:49:15;;;;;;;9.57;8.45;;;23.50;64.50;;;;;;5015568;28;20029;-62
2023/09/11 10:51:41;;;;;;;9.90;8.95;;;23.50;64.00;;;;;;5017303;28;20343;-63
2023/09/11 10:54:08;;;;;;;8.20;7.43;;;23.50;63.60;;;;;;5015988;28;20519;-61
2023/09/11 10:56:35;;;;;;;9.32;8.15;;;23.60;64.00;;;;;;5019005;28;20133;-61
2023/09/11 10:59:00;;;;;;;9.77;7.97;;;23.60;63.10;;;;;;5024001;28;20029;-63
2023/09/11 11:01:27;;;;;;;9.60;7.90;;;23.60;63.00;;;;;;5019966;28;20499;-63
2023/09/11 11:03:52;;;;;;;8.02;7.22;;;23.60;62.70;;;;;;5020059;28;20506;-62
2023/09/11 11:06:22;;;;;;;8.50;7.70;;;23.60;62.60;;;;;;5002650;28;20128;-63
2023/09/11 11:08:48;;;;;;;8.77;7.88;;;23.60;62.60;;;;;;5019578;28;20053;-61
2023/09/11 11:11:27;;;;;;;8.07;7.22;;;23.60;62.50;;;;;;5018637;28;20067;-62
2023/09/11 11:14:15;;;;;;;8.90;7.53;;;23.60;62.40;;;;;;5018129;28;20116;-60
2023/09/11 11:17:04;;;;;;;9.50;7.53;;;23.60;62.00;;;;;;5019822;28;20066;-62
2023/09/11 11:19:34;;;;;;;9.57;7.50;;;23.60;61.90;;;;;;5018375;28;20041;-62
2023/09/11 11:22:01;;;;;;;10.50;7.85;;;23.60;61.80;;;;;;5015113;28;20060;-60
2023/09/11 11:24:31;;;;;;;9.20;7.55;;;23.70;61.70;;;;;;5014524;28;20349;-57
2023/09/11 11:26:57;;;;;;;9.75;7.55;;;23.70;61.70;;;;;;5010282;28;20556;-57
2023/09/11 11:29:24;;;;;;;9.80;7.50;;;23.70;61.40;;;;;;5001254;28;20045;-62
2023/09/11 11:31:55;;;;;;;9.40;7.32;;;23.70;61.40;;;;;;5019408;28;20124;-60
2023/09/11 11:34:31;;;;;;;11.07;7.53;;;23.70;61.50;;;;;;5019149;28;20044;-63
2023/09/11 11:36:58;;;;;;;8.82;7.55;;;23.70;61.70;;;;;;5009066;28;20029;-64
2023/09/11 11:39:26;;;;;;;10.02;8.15;;;23.70;61.60;;;;;;5019559;28;20480;-63
2023/09/11 11:41:52;;;;;;;11.27;8.13;;;23.70;61.40;;;;;;5017784;28;20087;-61
2023/09/11 11:44:18;;;;;;;8.50;7.65;;;23.80;61.30;;;;;;5013468;28;20030;-60
2023/09/11 11:46:45;;;;;;;9.57;8.10;;;23.80;61.40;;;;;;5016391;28;20025;-61
2023/09/11 11:49:10;;;;;;;9.63;7.93;;;23.80;61.10;;;;;;5018762;28;20116;-63
2023/09/11 11:51:36;;;;;;;9.25;7.57;;;23.80;61.30;;;;;;5018454;28;20136;-62
2023/09/11 11:54:04;;;;;;;12.05;7.03;;;23.80;61.00;;;;;;5019432;28;20506;-62
2023/09/11 11:56:29;;;;;;;10.27;7.93;;;23.90;60.70;;;;;;5019108;28;20064;-63
2023/09/11 11:58:56;;;;;;;7.70;7.00;;;23.90;60.30;;;;;;5021995;28;20495;-63
2023/09/11 12:01:22;;;;;;;7.78;6.95;;;23.90;60.40;;;;;;4994197;28;20495;-63
2023/09/11 12:03:50;;;;;;;9.02;7.28;;;23.90;59.70;;;;;;5019761;28;20278;-63
2023/09/11 12:06:16;;;;;;;7.55;6.85;;;23.90;59.70;;;;;;5020682;28;20029;-59
2023/09/11 12:08:44;;;;;;;6.97;5.82;;;23.90;59.10;;;;;;5018733;28;20394;-63
2023/09/11 12:11:10;;;;;;;8.75;7.25;;;23.90;59.20;;;;;;5018900;28;20029;-64
2023/09/11 12:13:36;;;;;;;7.82;6.63;;;24.00;58.60;;;;;;5012774;28;20407;-63
2023/09/11 12:16:02;;;;;;;8.45;7.18;;;24.00;58.80;;;;;;5015101;28;20053;-62
2023/09/11 12:18:29;;;;;;;8.93;6.78;;;23.90;59.20;;;;;;5016611;28;20034;-61
2023/09/11 12:21:00;;;;;;;9.30;7.28;;;24.00;58.70;;;;;;5011649;28;20030;-60
2023/09/11 12:23:26;;;;;;;8.25;6.68;;;24.00;58.60;;;;;;4994734;28;20056;-60
2023/09/11 12:25:52;;;;;;;8.23;6.43;;;24.00;58.80;;;;;;5020215;28;20108;-63
2023/09/11 12:28:19;;;;;;;7.50;6.80;;;24.00;58.60;;;;;;5016786;28;20037;-62
2023/09/11 12:30:45;;;;;;;10.25;7.72;;;24.00;58.60;;;;;;5018385;28;20099;-61
2023/09/11 12:33:16;;;;;;;8.98;7.47;;;24.00;59.10;;;;;;5017255;28;20094;-63
2023/09/11 12:35:45;;;;;;;9.30;7.78;;;24.00;59.60;;;;;;5017665;28;20473;-63
2023/09/11 12:38:11;;;;;;;8.65;7.75;;;24.00;59.60;;;;;;5018538;28;20486;-63
2023/09/11 12:40:38;;;;;;;9.93;7.93;;;24.00;59.50;;;;;;5018115;28;20034;-58
2023/09/11 12:43:04;;;;;;;9.63;7.53;;;24.00;59.80;;;;;;5010858;28;20121;-59
2023/09/11 12:45:29;;;;;;;9.50;7.75;;;24.10;60.00;;;;;;5015495;28;20061;-63